createdAt,value
2023-05-05T00:00:15.991Z,0.00
2023-05-05T00:01:15.897Z,0.00
2023-05-05T00:02:15.901Z,0.00
2023-05-05T00:03:15.981Z,0.00
2023-05-05T00:04:15.988Z,0.00
2023-05-05T00:05:15.835Z,0.00
2023-05-05T00:06:15.844Z,0.00
2023-05-05T00:07:15.847Z,0.00
2023-05-05T00:08:15.816Z,0.00
2023-05-05T00:09:15.806Z,0.00
2023-05-05T00:10:15.785Z,0.00
2023-05-05T00:11:15.777Z,0.00
2023-05-05T00:12:15.791Z,0.00
2023-05-05T00:13:15.753Z,0.00
2023-05-05T00:14:15.765Z,0.00
2023-05-05T00:15:15.764Z,0.00
2023-05-05T00:16:15.720Z,0.00
2023-05-05T00:17:15.793Z,0.00
2023-05-05T00:18:15.708Z,0.00
2023-05-05T00:19:15.707Z,0.00
2023-05-05T00:20:15.718Z,0.00
2023-05-05T00:21:15.775Z,0.00
2023-05-05T00:22:15.683Z,0.00
2023-05-05T00:23:15.662Z,0.00
2023-05-05T00:24:15.625Z,0.00
2023-05-05T00:25:15.635Z,0.00
2023-05-05T00:26:15.640Z,0.00
2023-05-05T00:27:15.612Z,0.00
2023-05-05T00:28:15.617Z,0.00
2023-05-05T00:29:15.585Z,0.00
2023-05-05T00:30:15.562Z,0.00
2023-05-05T00:31:15.582Z,0.00
2023-05-05T00:32:15.556Z,0.00
2023-05-05T00:33:15.573Z,0.00
2023-05-05T00:34:15.526Z,0.00
2023-05-05T00:35:15.544Z,0.00
2023-05-05T00:36:15.538Z,0.00
2023-05-05T00:37:15.512Z,0.00
2023-05-05T00:38:15.511Z,0.00
2023-05-05T00:39:15.487Z,0.00
2023-05-05T00:40:15.470Z,0.00
2023-05-05T00:41:15.461Z,0.00
2023-05-05T00:42:15.437Z,0.00
2023-05-05T00:43:15.431Z,0.00
2023-05-05T00:44:15.425Z,0.00
2023-05-05T00:45:15.433Z,0.00
2023-05-05T00:46:15.432Z,0.00
2023-05-05T00:47:15.439Z,0.00
2023-05-05T00:48:15.399Z,0.00
2023-05-05T00:49:15.415Z,0.00
2023-05-05T00:50:15.587Z,0.00
2023-05-05T00:51:15.369Z,0.00
2023-05-05T00:52:15.344Z,0.00
2023-05-05T00:53:15.341Z,0.00
2023-05-05T00:54:15.326Z,0.00
2023-05-05T00:55:15.344Z,0.00
2023-05-05T00:56:15.295Z,0.00
2023-05-05T00:57:15.317Z,0.00
2023-05-05T00:58:15.291Z,0.00
2023-05-05T00:59:15.260Z,0.00
2023-05-05T01:00:15.278Z,0.00
2023-05-05T01:01:15.301Z,0.00
2023-05-05T01:02:15.244Z,0.00
2023-05-05T01:03:15.429Z,0.00
2023-05-05T01:04:15.239Z,0.00
2023-05-05T01:05:15.205Z,0.00
2023-05-05T01:06:15.239Z,0.00
2023-05-05T01:07:15.187Z,0.00
2023-05-05T01:08:15.175Z,0.00
2023-05-05T01:09:15.196Z,0.00
2023-05-05T01:10:20.322Z,0.00
2023-05-05T01:11:15.137Z,0.00
2023-05-05T01:12:15.172Z,0.00
2023-05-05T01:13:15.227Z,0.00
2023-05-05T01:14:15.160Z,0.00
2023-05-05T01:15:15.115Z,0.00
2023-05-05T01:16:15.180Z,0.00
2023-05-05T01:17:15.109Z,0.00
2023-05-05T01:18:15.096Z,0.00
2023-05-05T01:19:15.058Z,0.00
2023-05-05T01:20:15.086Z,0.00
2023-05-05T01:21:15.040Z,0.00
2023-05-05T01:22:15.084Z,0.00
2023-05-05T01:23:15.038Z,0.00
2023-05-05T01:24:15.044Z,0.00
2023-05-05T01:25:15.030Z,0.00
2023-05-05T01:26:14.999Z,0.00
2023-05-05T01:27:15.017Z,0.00
2023-05-05T01:28:15.001Z,0.00
2023-05-05T01:29:14.941Z,0.00
2023-05-05T01:30:14.950Z,0.00
2023-05-05T01:31:14.935Z,0.00
2023-05-05T01:32:14.963Z,0.00
2023-05-05T01:33:15.108Z,0.00
2023-05-05T01:34:14.899Z,0.00
2023-05-05T01:35:14.896Z,0.00
2023-05-05T01:36:14.891Z,0.00
2023-05-05T01:37:14.878Z,0.00
2023-05-05T01:38:15.170Z,0.00
2023-05-05T01:39:14.860Z,0.00
2023-05-05T01:40:14.902Z,0.00
2023-05-05T01:41:14.827Z,0.00
2023-05-05T01:42:14.817Z,0.00
2023-05-05T01:43:14.794Z,0.00
2023-05-05T01:44:14.821Z,0.00
2023-05-05T01:45:14.837Z,0.00
2023-05-05T01:46:14.924Z,0.00
2023-05-05T01:47:14.777Z,0.00
2023-05-05T01:48:14.770Z,0.00
2023-05-05T01:49:14.753Z,0.00
2023-05-05T01:50:14.747Z,0.00
2023-05-05T01:51:14.731Z,0.00
2023-05-05T01:52:14.718Z,0.00
2023-05-05T01:53:14.737Z,0.00
2023-05-05T01:54:14.700Z,0.00
2023-05-05T01:55:14.674Z,0.00
2023-05-05T01:56:14.714Z,0.00
2023-05-05T01:57:14.685Z,0.00
2023-05-05T01:58:14.662Z,0.00
2023-05-05T01:59:14.625Z,0.00
2023-05-05T02:00:14.660Z,0.00
2023-05-05T02:01:14.653Z,0.00
2023-05-05T02:02:14.653Z,0.00
2023-05-05T02:03:14.780Z,0.00
2023-05-05T02:04:14.645Z,0.00
2023-05-05T02:05:14.568Z,0.00
2023-05-05T02:06:14.576Z,0.00
2023-05-05T02:07:14.559Z,0.00
2023-05-05T02:08:14.595Z,0.00
2023-05-05T02:09:14.544Z,0.00
2023-05-05T02:10:14.521Z,0.00
2023-05-05T02:11:14.496Z,0.00
2023-05-05T02:12:14.514Z,0.00
2023-05-05T02:13:14.555Z,0.00
2023-05-05T02:14:14.521Z,0.00
2023-05-05T02:15:14.484Z,0.00
2023-05-05T02:16:14.576Z,0.00
2023-05-05T02:17:14.462Z,0.00
2023-05-05T02:18:14.457Z,0.00
2023-05-05T02:19:14.432Z,0.00
2023-05-05T02:20:14.445Z,0.00
2023-05-05T02:21:14.423Z,0.00
2023-05-05T02:22:14.410Z,0.00
2023-05-05T02:23:14.395Z,0.00
2023-05-05T02:24:14.404Z,0.00
2023-05-05T02:25:14.401Z,0.00
2023-05-05T02:26:14.366Z,0.00
2023-05-05T02:27:14.345Z,0.00
2023-05-05T02:28:14.372Z,0.00
2023-05-05T02:29:14.351Z,0.00
2023-05-05T02:30:14.333Z,0.00
2023-05-05T02:31:14.361Z,0.00
2023-05-05T02:32:14.312Z,0.00
2023-05-05T02:33:14.303Z,0.00
2023-05-05T02:34:14.309Z,0.00
2023-05-05T02:35:14.301Z,0.00
2023-05-05T02:36:14.274Z,0.00
2023-05-05T02:37:14.256Z,0.00
2023-05-05T02:38:14.247Z,0.00
2023-05-05T02:39:14.250Z,0.00
2023-05-05T02:40:14.239Z,0.00
2023-05-05T02:41:14.228Z,0.00
2023-05-05T02:42:14.206Z,0.00
2023-05-05T02:43:14.220Z,0.00
2023-05-05T02:44:14.340Z,0.00
2023-05-05T02:45:14.159Z,0.00
2023-05-05T02:46:14.205Z,0.00
2023-05-05T02:47:14.158Z,0.00
2023-05-05T02:48:14.134Z,0.00
2023-05-05T02:49:14.126Z,0.00
2023-05-05T02:50:14.123Z,0.00
2023-05-05T02:51:14.099Z,0.00
2023-05-05T02:52:14.115Z,0.00
2023-05-05T02:53:14.077Z,0.00
2023-05-05T02:54:14.539Z,0.00
2023-05-05T02:55:14.072Z,0.00
2023-05-05T02:56:14.121Z,0.00
2023-05-05T02:57:14.045Z,0.00
2023-05-05T02:58:14.041Z,0.00
2023-05-05T02:59:15.982Z,0.00
2023-05-05T03:00:14.054Z,0.00
2023-05-05T03:01:14.053Z,0.00
2023-05-05T03:02:14.031Z,0.00
2023-05-05T03:03:14.292Z,0.00
2023-05-05T03:04:13.974Z,0.00
2023-05-05T03:05:13.950Z,0.00
2023-05-05T03:06:13.955Z,0.00
2023-05-05T03:07:13.951Z,0.00
2023-05-05T03:08:13.968Z,0.00
2023-05-05T03:09:13.929Z,0.00
2023-05-05T03:10:13.941Z,0.00
2023-05-05T03:11:13.886Z,0.00
2023-05-05T03:12:13.887Z,0.00
2023-05-05T03:13:14.013Z,0.00
2023-05-05T03:14:13.878Z,0.00
2023-05-05T03:15:13.865Z,0.00
2023-05-05T03:16:13.908Z,0.00
2023-05-05T03:17:13.843Z,0.00
2023-05-05T03:18:13.826Z,0.00
2023-05-05T03:19:13.847Z,0.00
2023-05-05T03:20:13.811Z,0.00
2023-05-05T03:21:13.786Z,0.00
2023-05-05T03:22:13.783Z,0.00
2023-05-05T03:23:13.767Z,0.00
2023-05-05T03:24:13.772Z,0.00
2023-05-05T03:25:13.782Z,0.00
2023-05-05T03:26:13.737Z,0.00
2023-05-05T03:27:13.680Z,1.00
2023-05-05T03:28:13.686Z,1.00
2023-05-05T03:29:13.681Z,1.00
2023-05-05T03:30:13.730Z,0.00
2023-05-05T03:31:13.691Z,0.00
2023-05-05T03:32:13.753Z,2.00
2023-05-05T03:33:13.625Z,1.00
2023-05-05T03:34:13.626Z,1.00
2023-05-05T03:35:13.586Z,2.00
2023-05-05T03:36:13.611Z,1.00
2023-05-05T03:37:13.570Z,1.00
2023-05-05T03:38:13.581Z,3.00
2023-05-05T03:39:13.541Z,4.00
2023-05-05T03:40:13.563Z,8.00
2023-05-05T03:41:13.551Z,5.00
2023-05-05T03:42:13.521Z,6.00
2023-05-05T03:43:13.526Z,5.00
2023-05-05T03:44:13.516Z,5.00
2023-05-05T03:45:13.477Z,8.00
2023-05-05T03:46:13.637Z,11.00
2023-05-05T03:47:13.450Z,12.00
2023-05-05T03:48:13.466Z,11.00
2023-05-05T03:49:13.462Z,13.00
2023-05-05T03:50:13.432Z,17.00
2023-05-05T03:51:13.471Z,22.00
2023-05-05T03:52:15.022Z,25.00
2023-05-05T03:53:13.420Z,32.00
2023-05-05T03:54:13.420Z,41.00
2023-05-05T03:55:13.373Z,50.00
2023-05-05T03:56:13.403Z,57.00
2023-05-05T03:57:13.400Z,61.00
2023-05-05T03:58:13.361Z,67.00
2023-05-05T03:59:13.354Z,69.00
2023-05-05T04:00:13.353Z,77.00
2023-05-05T04:01:13.338Z,83.00
2023-05-05T04:02:13.412Z,90.00
2023-05-05T04:03:13.500Z,97.00
2023-05-05T04:04:13.365Z,108.00
2023-05-05T04:05:13.280Z,120.00
2023-05-05T04:06:13.295Z,133.00
2023-05-05T04:07:13.257Z,139.00
2023-05-05T04:08:13.279Z,148.00
2023-05-05T04:09:13.289Z,157.00
2023-05-05T04:10:13.240Z,159.00
2023-05-05T04:11:13.211Z,165.00
2023-05-05T04:12:13.244Z,168.00
2023-05-05T04:13:13.295Z,174.00
2023-05-05T04:14:13.267Z,180.00
2023-05-05T04:15:13.176Z,194.00
2023-05-05T04:16:13.200Z,211.00
2023-05-05T04:17:13.185Z,222.00
2023-05-05T04:18:13.146Z,228.00
2023-05-05T04:19:13.164Z,231.00
2023-05-05T04:20:13.263Z,235.00
2023-05-05T04:21:13.151Z,235.00
2023-05-05T04:22:13.148Z,238.00
2023-05-05T04:23:13.095Z,242.00
2023-05-05T04:24:13.094Z,243.00
2023-05-05T04:25:13.108Z,245.00
2023-05-05T04:26:13.069Z,248.00
2023-05-05T04:27:13.083Z,253.00
2023-05-05T04:28:13.120Z,252.00
2023-05-05T04:29:13.039Z,251.00
2023-05-05T04:30:13.072Z,248.00
2023-05-05T04:31:13.064Z,264.00
2023-05-05T04:32:13.045Z,284.00
2023-05-05T04:33:13.067Z,301.00
2023-05-05T04:34:12.983Z,283.00
2023-05-05T04:35:12.972Z,276.00
2023-05-05T04:36:13.055Z,285.00
2023-05-05T04:37:12.954Z,318.00
2023-05-05T04:38:12.947Z,343.00
2023-05-05T04:39:12.976Z,364.00
2023-05-05T04:40:12.956Z,381.00
2023-05-05T04:41:12.916Z,391.00
2023-05-05T04:42:12.922Z,402.00
2023-05-05T04:43:12.909Z,407.00
2023-05-05T04:44:13.024Z,423.00
2023-05-05T04:45:12.879Z,453.00
2023-05-05T04:46:12.884Z,466.00
2023-05-05T04:47:14.584Z,488.00
2023-05-05T04:48:12.856Z,514.00
2023-05-05T04:49:13.469Z,535.00
2023-05-05T04:50:12.870Z,546.00
2023-05-05T04:51:12.839Z,566.00
2023-05-05T04:52:12.821Z,595.00
2023-05-05T04:53:12.782Z,632.00
2023-05-05T04:54:12.805Z,655.00
2023-05-05T04:55:12.757Z,700.00
2023-05-05T04:56:12.829Z,699.00
2023-05-05T04:57:12.740Z,738.00
2023-05-05T04:58:12.750Z,717.00
2023-05-05T04:59:12.765Z,845.00
2023-05-05T05:00:12.718Z,810.00
2023-05-05T05:01:12.755Z,800.00
2023-05-05T05:02:12.792Z,796.00
2023-05-05T05:03:12.728Z,805.00
2023-05-05T05:04:12.680Z,840.00
2023-05-05T05:05:12.679Z,863.00
2023-05-05T05:06:12.662Z,886.00
2023-05-05T05:07:12.644Z,894.00
2023-05-05T05:08:12.692Z,899.00
2023-05-05T05:09:12.619Z,902.00
2023-05-05T05:10:12.627Z,899.00
2023-05-05T05:11:12.603Z,913.00
2023-05-05T05:12:12.625Z,921.00
2023-05-05T05:13:13.083Z,939.00
2023-05-05T05:14:12.587Z,968.00
2023-05-05T05:15:12.584Z,1001.00
2023-05-05T05:16:12.605Z,1050.00
2023-05-05T05:17:12.534Z,1057.00
2023-05-05T05:18:12.566Z,1026.00
2023-05-05T05:19:12.555Z,992.00
2023-05-05T05:20:12.502Z,1062.00
2023-05-05T05:21:12.495Z,1090.00
2023-05-05T05:22:12.488Z,1110.00
2023-05-05T05:23:12.507Z,1118.00
2023-05-05T05:24:12.476Z,1135.00
2023-05-05T05:25:12.478Z,1152.00
2023-05-05T05:26:12.470Z,1138.00
2023-05-05T05:27:12.460Z,1143.00
2023-05-05T05:28:12.416Z,1155.00
2023-05-05T05:29:12.427Z,1186.00
2023-05-05T05:30:12.407Z,1232.00
2023-05-05T05:31:12.406Z,1281.00
2023-05-05T05:32:12.448Z,1325.00
2023-05-05T05:33:12.400Z,1351.00
2023-05-05T05:34:12.903Z,1325.00
2023-05-05T05:35:12.409Z,1313.00
2023-05-05T05:36:12.336Z,1303.00
2023-05-05T05:37:12.335Z,1301.00
2023-05-05T05:38:12.363Z,1300.00
2023-05-05T05:39:12.328Z,1306.00
2023-05-05T05:40:12.287Z,1322.00
2023-05-05T05:41:12.317Z,1347.00
2023-05-05T05:42:12.269Z,1374.00
2023-05-05T05:43:12.274Z,1416.00
2023-05-05T05:44:12.481Z,1418.00
2023-05-05T05:45:12.236Z,1428.00
2023-05-05T05:46:12.247Z,1458.00
2023-05-05T05:47:12.228Z,1476.00
2023-05-05T05:48:12.219Z,1489.00
2023-05-05T05:49:12.220Z,1465.00
2023-05-05T05:50:12.194Z,1411.00
2023-05-05T05:51:12.221Z,797.00
2023-05-05T05:52:12.154Z,1742.00
2023-05-05T05:53:12.182Z,1853.00
2023-05-05T05:54:12.123Z,1821.00
2023-05-05T05:55:12.187Z,2345.00
2023-05-05T05:56:12.109Z,1832.00
2023-05-05T05:57:12.113Z,2062.00
2023-05-05T05:58:12.104Z,1888.00
2023-05-05T05:59:12.116Z,2017.00
2023-05-05T06:00:12.083Z,2272.00
2023-05-05T06:01:12.085Z,1968.00
2023-05-05T06:02:12.075Z,2269.00
2023-05-05T06:03:12.167Z,1934.00
2023-05-05T06:04:12.072Z,2271.00
2023-05-05T06:05:12.060Z,2219.00
2023-05-05T06:06:12.006Z,2081.00
2023-05-05T06:07:12.007Z,2311.00
2023-05-05T06:08:12.001Z,2383.00
2023-05-05T06:09:11.988Z,2628.00
2023-05-05T06:10:26.543Z,2028.00
2023-05-05T06:11:11.968Z,2206.00
2023-05-05T06:12:11.979Z,1862.00
2023-05-05T06:13:12.066Z,2003.00
2023-05-05T06:14:11.918Z,1982.00
2023-05-05T06:15:11.978Z,2157.00
2023-05-05T06:16:11.914Z,2006.00
2023-05-05T06:17:11.898Z,2061.00
2023-05-05T06:18:11.950Z,2052.00
2023-05-05T06:19:11.968Z,2006.00
2023-05-05T06:20:11.851Z,2422.00
2023-05-05T06:21:11.905Z,2054.00
2023-05-05T06:22:11.860Z,2218.00
2023-05-05T06:23:11.841Z,2404.00
2023-05-05T06:24:11.819Z,2617.00
2023-05-05T06:25:11.813Z,2173.00
2023-05-05T06:26:11.804Z,2542.00
2023-05-05T06:27:11.888Z,2897.00
2023-05-05T06:28:11.769Z,2558.00
2023-05-05T06:29:12.474Z,2634.00
2023-05-05T06:30:11.761Z,2229.00
2023-05-05T06:31:11.785Z,2702.00
2023-05-05T06:32:11.732Z,3244.00
2023-05-05T06:33:11.742Z,2370.00
2023-05-05T06:34:11.712Z,2157.00
2023-05-05T06:35:11.715Z,2447.00
2023-05-05T06:36:11.717Z,1961.00
2023-05-05T06:37:11.840Z,2724.00
2023-05-05T06:38:11.680Z,2822.00
2023-05-05T06:39:11.776Z,2832.00
2023-05-05T06:40:11.656Z,2976.00
2023-05-05T06:41:11.654Z,3043.00
2023-05-05T06:42:11.923Z,2998.00
2023-05-05T06:43:11.651Z,2699.00
2023-05-05T06:44:11.613Z,3150.00
2023-05-05T06:45:11.643Z,2277.00
2023-05-05T06:46:11.637Z,3091.00
2023-05-05T06:47:11.593Z,2603.00
2023-05-05T06:48:11.605Z,3417.00
2023-05-05T06:49:11.561Z,2728.00
2023-05-05T06:50:11.675Z,3207.00
2023-05-05T06:51:11.550Z,2876.00
2023-05-05T06:52:11.521Z,3263.00
2023-05-05T06:53:11.557Z,3246.00
2023-05-05T06:54:11.523Z,2978.00
2023-05-05T06:55:11.518Z,3376.00
2023-05-05T06:56:11.487Z,3112.00
2023-05-05T06:57:11.471Z,3130.00
2023-05-05T06:58:11.468Z,3063.00
2023-05-05T06:59:11.479Z,3076.00
2023-05-05T07:00:11.501Z,2835.00
2023-05-05T07:01:11.524Z,3091.00
2023-05-05T07:02:11.417Z,3276.00
2023-05-05T07:03:11.471Z,3084.00
2023-05-05T07:04:11.493Z,3495.00
2023-05-05T07:05:11.413Z,2915.00
2023-05-05T07:06:11.431Z,2946.00
2023-05-05T07:07:11.385Z,2683.00
2023-05-05T07:08:11.403Z,2854.00
2023-05-05T07:09:11.392Z,2469.00
2023-05-05T07:10:11.405Z,2354.00
2023-05-05T07:11:11.333Z,3164.00
2023-05-05T07:12:11.331Z,2990.00
2023-05-05T07:13:11.378Z,2494.00
2023-05-05T07:14:11.389Z,3469.00
2023-05-05T07:15:23.410Z,2504.00
2023-05-05T07:16:11.297Z,3103.00
2023-05-05T07:17:11.319Z,3355.00
2023-05-05T07:18:11.363Z,3136.00
2023-05-05T07:19:11.238Z,2697.00
2023-05-05T07:20:11.254Z,2647.00
2023-05-05T07:21:11.215Z,3245.00
2023-05-05T07:22:11.227Z,3154.00
2023-05-05T07:23:11.209Z,4507.00
2023-05-05T07:24:11.207Z,2331.00
2023-05-05T07:25:11.200Z,3457.00
2023-05-05T07:26:11.178Z,3386.00
2023-05-05T07:27:11.206Z,3058.00
2023-05-05T07:28:11.197Z,2786.00
2023-05-05T07:29:11.158Z,2281.00
2023-05-05T07:30:14.711Z,3724.00
2023-05-05T07:31:11.156Z,3425.00
2023-05-05T07:32:11.136Z,2592.00
2023-05-05T07:33:11.138Z,2680.00
2023-05-05T07:34:11.090Z,3034.00
2023-05-05T07:35:11.092Z,2213.00
2023-05-05T07:36:11.056Z,3245.00
2023-05-05T07:37:11.110Z,3595.00
2023-05-05T07:38:11.100Z,2481.00
2023-05-05T07:39:11.119Z,2856.00
2023-05-05T07:40:11.376Z,2941.00
2023-05-05T07:41:11.040Z,3297.00
2023-05-05T07:42:11.033Z,2643.00
2023-05-05T07:43:11.023Z,2727.00
2023-05-05T07:44:10.977Z,3732.00
2023-05-05T07:45:10.986Z,1985.00
2023-05-05T07:46:11.088Z,3347.00
2023-05-05T07:47:10.953Z,2388.00
2023-05-05T07:48:11.080Z,3132.00
2023-05-05T07:49:10.924Z,3603.00
2023-05-05T07:50:11.262Z,3230.00
2023-05-05T07:51:10.922Z,3422.00
2023-05-05T07:52:10.919Z,2900.00
2023-05-05T07:53:14.797Z,4136.00
2023-05-05T07:54:10.872Z,3607.00
2023-05-05T07:55:10.893Z,2626.00
2023-05-05T07:56:10.858Z,3143.00
2023-05-05T07:57:10.872Z,3367.00
2023-05-05T07:58:10.948Z,3455.00
2023-05-05T07:59:10.850Z,3416.00
2023-05-05T08:00:11.119Z,3323.00
2023-05-05T08:01:10.872Z,4024.00
2023-05-05T08:02:10.862Z,4136.00
2023-05-05T08:03:11.906Z,4227.00
2023-05-05T08:04:10.888Z,3688.00
2023-05-05T08:05:10.987Z,4049.00
2023-05-05T08:06:10.769Z,4643.00
2023-05-05T08:07:10.750Z,4084.00
2023-05-05T08:08:10.791Z,3968.00
2023-05-05T08:09:10.738Z,3813.00
2023-05-05T08:10:10.715Z,4378.00
2023-05-05T08:11:10.707Z,3642.00
2023-05-05T08:12:10.749Z,4010.00
2023-05-05T08:13:10.793Z,3746.00
2023-05-05T08:14:10.688Z,3403.00
2023-05-05T08:15:10.993Z,3985.00
2023-05-05T08:16:10.668Z,4163.00
2023-05-05T08:17:11.148Z,3751.00
2023-05-05T08:18:10.688Z,3911.00
2023-05-05T08:19:21.220Z,4282.00
2023-05-05T08:20:10.667Z,2842.00
2023-05-05T08:21:10.597Z,3992.00
2023-05-05T08:22:10.605Z,4700.00
2023-05-05T08:23:10.577Z,4102.00
2023-05-05T08:24:10.579Z,4215.00
2023-05-05T08:25:10.622Z,3336.00
2023-05-05T08:26:10.542Z,3952.00
2023-05-05T08:27:10.570Z,4692.00
2023-05-05T08:28:10.514Z,4643.00
2023-05-05T08:29:10.523Z,4601.00
2023-05-05T08:30:10.541Z,4213.00
2023-05-05T08:31:10.538Z,3371.00
2023-05-05T08:32:10.525Z,4935.00
2023-05-05T08:33:10.499Z,3006.00
2023-05-05T08:34:10.458Z,4421.00
2023-05-05T08:35:10.901Z,3954.00
2023-05-05T08:36:10.426Z,4147.00
2023-05-05T08:37:10.436Z,3765.00
2023-05-05T08:38:10.432Z,4405.00
2023-05-05T08:39:10.398Z,4300.00
2023-05-05T08:40:11.181Z,3489.00
2023-05-05T08:41:10.424Z,4748.00
2023-05-05T08:42:10.377Z,4483.00
2023-05-05T08:43:10.369Z,4135.00
2023-05-05T08:44:10.358Z,4628.00
2023-05-05T08:45:10.938Z,4256.00
2023-05-05T08:46:10.356Z,3548.00
2023-05-05T08:47:10.411Z,4355.00
2023-05-05T08:48:10.331Z,4359.00
2023-05-05T08:49:10.332Z,4349.00
2023-05-05T08:50:10.525Z,4606.00
2023-05-05T08:51:10.314Z,3914.00
2023-05-05T08:52:10.295Z,3723.00
2023-05-05T08:53:10.277Z,3711.00
2023-05-05T08:54:10.233Z,4509.00
2023-05-05T08:55:10.341Z,4625.00
2023-05-05T08:56:10.224Z,4179.00
2023-05-05T08:57:10.222Z,3702.00
2023-05-05T08:58:10.213Z,3557.00
2023-05-05T08:59:10.225Z,3535.00
2023-05-05T09:00:10.181Z,3573.00
2023-05-05T09:01:10.286Z,3685.00
2023-05-05T09:02:10.218Z,3384.00
2023-05-05T09:03:10.253Z,3849.00
2023-05-05T09:04:10.137Z,3635.00
2023-05-05T09:05:10.374Z,3346.00
2023-05-05T09:06:10.124Z,4032.00
2023-05-05T09:07:10.129Z,4296.00
2023-05-05T09:08:10.087Z,4510.00
2023-05-05T09:09:10.087Z,3322.00
2023-05-05T09:10:10.093Z,3929.00
2023-05-05T09:11:10.094Z,4518.00
2023-05-05T09:12:10.061Z,3627.00
2023-05-05T09:13:10.074Z,3517.00
2023-05-05T09:14:10.031Z,3661.00
2023-05-05T09:15:10.157Z,3933.00
2023-05-05T09:16:10.025Z,3861.00
2023-05-05T09:17:10.196Z,3959.00
2023-05-05T09:18:09.999Z,4206.00
2023-05-05T09:19:09.988Z,4129.00
2023-05-05T09:20:09.976Z,3496.00
2023-05-05T09:21:09.968Z,4276.00
2023-05-05T09:22:09.981Z,4776.00
2023-05-05T09:23:09.959Z,4691.00
2023-05-05T09:24:10.013Z,5258.00
2023-05-05T09:25:10.116Z,3864.00
2023-05-05T09:26:09.913Z,4426.00
2023-05-05T09:27:09.947Z,5385.00
2023-05-05T09:28:09.887Z,3042.00
2023-05-05T09:29:09.927Z,4065.00
2023-05-05T09:30:09.895Z,5362.00
2023-05-05T09:31:09.906Z,4483.00
2023-05-05T09:32:09.873Z,6827.00
2023-05-05T09:33:09.919Z,5938.00
2023-05-05T09:34:09.839Z,4395.00
2023-05-05T09:35:09.994Z,6108.00
2023-05-05T09:36:09.809Z,3744.00
2023-05-05T09:37:09.808Z,7236.00
2023-05-05T09:38:09.805Z,5644.00
2023-05-05T09:39:09.781Z,6841.00
2023-05-05T09:40:09.788Z,7147.00
2023-05-05T09:41:09.840Z,6512.00
2023-05-05T09:42:09.749Z,4274.00
2023-05-05T09:43:09.750Z,3615.00
2023-05-05T09:44:09.735Z,5412.00
2023-05-05T09:45:09.934Z,5164.00
2023-05-05T09:46:09.734Z,7262.00
2023-05-05T09:47:21.937Z,5754.00
2023-05-05T09:48:09.747Z,6117.00
2023-05-05T09:49:09.685Z,5659.00
2023-05-05T09:50:09.880Z,5688.00
2023-05-05T09:51:09.661Z,5941.00
2023-05-05T09:52:09.653Z,2662.00
2023-05-05T09:53:09.648Z,7885.00
2023-05-05T09:54:09.656Z,8183.00
2023-05-05T09:55:09.620Z,2861.00
2023-05-05T09:56:09.615Z,9065.00
2023-05-05T09:57:09.585Z,5371.00
2023-05-05T09:58:09.670Z,6322.00
2023-05-05T09:59:09.584Z,4029.00
2023-05-05T10:00:09.797Z,6149.00
2023-05-05T10:01:09.568Z,6943.00
2023-05-05T10:02:09.550Z,8935.00
2023-05-05T10:03:09.590Z,4889.00
2023-05-05T10:04:09.529Z,7380.00
2023-05-05T10:05:09.556Z,5815.00
2023-05-05T10:06:09.544Z,6867.00
2023-05-05T10:07:09.492Z,6611.00
2023-05-05T10:08:09.469Z,5322.00
2023-05-05T10:09:09.484Z,6819.00
2023-05-05T10:10:09.784Z,9285.00
2023-05-05T10:11:09.455Z,4678.00
2023-05-05T10:12:09.491Z,5223.00
2023-05-05T10:13:09.480Z,8794.00
2023-05-05T10:14:09.410Z,2947.00
2023-05-05T10:15:09.446Z,4259.00
2023-05-05T10:16:09.458Z,6622.00
2023-05-05T10:17:09.373Z,7994.00
2023-05-05T10:18:09.408Z,10129.00
2023-05-05T10:19:09.354Z,3435.00
2023-05-05T10:20:09.449Z,8612.00
2023-05-05T10:21:09.358Z,4917.00
2023-05-05T10:22:09.349Z,4756.00
2023-05-05T10:23:09.319Z,5910.00
2023-05-05T10:24:09.312Z,6495.00
2023-05-05T10:25:09.319Z,5410.00
2023-05-05T10:26:09.331Z,3863.00
2023-05-05T10:27:10.574Z,2554.00
2023-05-05T10:28:09.277Z,9629.00
2023-05-05T10:29:09.247Z,5179.00
2023-05-05T10:30:09.479Z,4784.00
2023-05-05T10:31:20.356Z,4594.00
2023-05-05T10:32:30.247Z,5333.00
2023-05-05T10:34:09.242Z,7954.00
2023-05-05T10:35:09.213Z,8517.00
2023-05-05T10:36:09.206Z,5006.00
2023-05-05T10:37:09.811Z,5323.00
2023-05-05T10:38:09.198Z,5750.00
2023-05-05T10:39:09.202Z,2086.00
2023-05-05T10:40:09.350Z,5063.00
2023-05-05T10:41:09.143Z,7160.00
2023-05-05T10:42:09.156Z,10353.00
2023-05-05T10:43:09.208Z,8548.00
2023-05-05T10:44:09.142Z,8289.00
2023-05-05T10:45:09.123Z,10003.00
2023-05-05T10:46:09.126Z,8348.00
2023-05-05T10:47:09.094Z,6007.00
2023-05-05T10:48:09.263Z,9732.00
2023-05-05T10:49:11.662Z,7270.00
2023-05-05T10:50:09.299Z,8122.00
2023-05-05T10:51:09.071Z,8759.00
2023-05-05T10:52:09.078Z,4915.00
2023-05-05T10:53:09.017Z,9149.00
2023-05-05T10:54:09.047Z,7364.00
2023-05-05T10:55:08.987Z,5752.00
2023-05-05T10:56:08.986Z,5946.00
2023-05-05T10:57:08.990Z,9068.00
2023-05-05T10:58:08.971Z,7306.00
2023-05-05T10:59:08.940Z,9148.00
2023-05-05T11:00:09.236Z,9467.00
2023-05-05T11:01:08.955Z,9246.00
2023-05-05T11:02:08.951Z,8818.00
2023-05-05T11:03:08.944Z,8654.00
2023-05-05T11:04:09.014Z,9381.00
2023-05-05T11:05:08.897Z,9459.00
2023-05-05T11:06:08.895Z,7673.00
2023-05-05T11:07:11.778Z,7260.00
2023-05-05T11:08:08.892Z,6683.00
2023-05-05T11:09:08.861Z,6446.00
2023-05-05T11:10:09.092Z,6840.00
2023-05-05T11:11:08.846Z,7144.00
2023-05-05T11:12:08.827Z,7045.00
2023-05-05T11:13:08.926Z,7820.00
2023-05-05T11:14:08.829Z,6885.00
2023-05-05T11:15:08.797Z,8064.00
2023-05-05T11:16:08.835Z,7655.00
2023-05-05T11:17:08.774Z,7457.00
2023-05-05T11:18:08.987Z,9214.00
2023-05-05T11:19:08.770Z,9166.00
2023-05-05T11:20:09.040Z,10740.00
2023-05-05T11:21:08.737Z,10851.00
2023-05-05T11:22:08.751Z,10036.00
2023-05-05T11:23:08.727Z,8761.00
2023-05-05T11:24:08.726Z,7412.00
2023-05-05T11:25:08.692Z,8119.00
2023-05-05T11:26:08.699Z,8474.00
2023-05-05T11:27:08.668Z,6433.00
2023-05-05T11:28:08.841Z,6004.00
2023-05-05T11:29:08.678Z,7597.00
2023-05-05T11:30:08.913Z,6857.00
2023-05-05T11:31:08.659Z,6334.00
2023-05-05T11:32:08.628Z,6880.00
2023-05-05T11:33:08.669Z,7117.00
2023-05-05T11:34:08.617Z,7422.00
2023-05-05T11:35:08.615Z,6535.00
2023-05-05T11:36:08.600Z,6842.00
2023-05-05T11:37:08.797Z,6137.00
2023-05-05T11:38:08.580Z,11784.00
2023-05-05T11:39:08.570Z,8217.00
2023-05-05T11:40:08.874Z,9853.00
2023-05-05T11:41:08.548Z,6603.00
2023-05-05T11:42:10.829Z,12452.00
2023-05-05T11:43:08.492Z,8445.00
2023-05-05T11:44:08.551Z,7221.00
2023-05-05T11:45:08.492Z,7041.00
2023-05-05T11:46:08.493Z,6567.00
2023-05-05T11:47:08.456Z,5785.00
2023-05-05T11:48:08.588Z,5676.00
2023-05-05T11:49:08.427Z,5874.00
2023-05-05T11:50:08.720Z,5540.00
2023-05-05T11:51:08.432Z,5233.00
2023-05-05T11:52:08.434Z,5077.00
2023-05-05T11:53:08.390Z,5132.00
2023-05-05T11:54:08.381Z,5323.00
2023-05-05T11:55:08.359Z,5645.00
2023-05-05T11:56:08.363Z,5874.00
2023-05-05T11:57:08.668Z,5829.00
2023-05-05T11:58:08.414Z,5747.00
2023-05-05T11:59:08.349Z,5380.00
2023-05-05T12:00:08.700Z,5071.00
2023-05-05T12:01:08.377Z,5233.00
2023-05-05T12:02:08.317Z,5826.00
2023-05-05T12:03:08.378Z,5828.00
2023-05-05T12:04:08.580Z,5960.00
2023-05-05T12:05:08.346Z,7123.00
2023-05-05T12:06:08.264Z,7170.00
2023-05-05T12:07:08.315Z,6790.00
2023-05-05T12:08:08.282Z,6390.00
2023-05-05T12:09:08.217Z,5936.00
2023-05-05T12:10:08.511Z,5658.00
2023-05-05T12:11:08.206Z,5582.00
2023-05-05T12:12:08.220Z,5797.00
2023-05-05T12:13:08.334Z,5855.00
2023-05-05T12:14:08.204Z,6104.00
2023-05-05T12:15:08.173Z,6012.00
2023-05-05T12:16:08.181Z,5879.00
2023-05-05T12:17:08.147Z,5823.00
2023-05-05T12:18:08.200Z,5688.00
2023-05-05T12:19:08.162Z,5570.00
2023-05-05T12:20:08.339Z,5653.00
2023-05-05T12:21:08.114Z,6080.00
2023-05-05T12:22:08.112Z,6497.00
2023-05-05T12:23:08.089Z,5900.00
2023-05-05T12:24:08.074Z,6236.00
2023-05-05T12:25:08.211Z,7351.00
2023-05-05T12:26:08.087Z,6335.00
2023-05-05T12:27:08.034Z,5335.00
2023-05-05T12:28:08.063Z,5681.00
2023-05-05T12:29:08.046Z,5125.00
2023-05-05T12:30:08.392Z,4849.00